createdAt,value
2023-09-17T00:04:35.553Z,8.80
2023-09-17T00:09:39.042Z,8.50
2023-09-17T00:14:42.638Z,8.10
2023-09-17T00:19:45.786Z,6.00
2023-09-17T00:24:49.150Z,5.70
2023-09-17T00:29:52.367Z,7.80
2023-09-17T00:34:55.671Z,6.40
2023-09-17T00:39:59.085Z,6.60
2023-09-17T00:45:04.034Z,7.00
2023-09-17T00:50:10.166Z,6.50
2023-09-17T00:55:13.452Z,5.90
2023-09-17T01:00:22.407Z,8.20
2023-09-17T01:05:38.358Z,8.00
2023-09-17T01:10:42.302Z,8.20
2023-09-17T01:15:45.832Z,8.60
2023-09-17T01:21:14.729Z,10.30
2023-09-17T01:26:26.467Z,11.80
2023-09-17T01:31:30.610Z,7.30
2023-09-17T01:36:37.356Z,8.30
2023-09-17T01:41:42.143Z,9.80
2023-09-17T01:46:47.148Z,9.20
2023-09-17T01:51:51.184Z,8.90
2023-09-17T01:56:54.395Z,9.80
2023-09-17T02:01:58.125Z,8.00
2023-09-17T02:07:01.424Z,10.30
2023-09-17T02:12:05.246Z,9.10
2023-09-17T02:17:12.540Z,11.00
2023-09-17T02:22:17.001Z,8.30
2023-09-17T02:27:20.800Z,9.30
2023-09-17T02:32:24.119Z,8.50
2023-09-17T02:37:28.048Z,8.00
2023-09-17T02:42:31.763Z,7.70
2023-09-17T02:47:35.317Z,7.90
2023-09-17T02:52:39.767Z,12.60
2023-09-17T02:57:43.122Z,8.50
2023-09-17T03:02:56.186Z,8.70
2023-09-17T03:08:00.346Z,8.90
2023-09-17T03:13:03.601Z,11.50
2023-09-17T03:18:06.874Z,8.90
2023-09-17T03:23:10.120Z,10.00
2023-09-17T03:38:20.459Z,11.30
2023-09-17T03:43:24.508Z,10.00
2023-09-17T03:48:27.897Z,11.50
2023-09-17T03:53:31.391Z,9.90
2023-09-17T03:58:34.960Z,10.70
2023-09-17T04:03:39.210Z,10.10
2023-09-17T04:08:42.368Z,10.40
2023-09-17T04:23:52.291Z,9.50
2023-09-17T04:28:55.874Z,10.00
2023-09-17T04:33:59.228Z,10.60
2023-09-17T04:44:08.928Z,10.20
2023-09-17T04:49:12.646Z,10.00
2023-09-17T04:54:15.852Z,11.70
2023-09-17T04:59:19.010Z,10.60
2023-09-17T05:09:25.590Z,11.70
2023-09-17T05:14:30.235Z,9.00
2023-09-17T05:19:33.572Z,8.70
2023-09-17T05:24:36.852Z,8.10
2023-09-17T05:29:41.221Z,6.80
2023-09-17T05:34:45.767Z,7.20
2023-09-17T05:39:49.028Z,10.50
2023-09-17T05:44:52.437Z,9.20
2023-09-17T05:49:57.279Z,7.90
2023-09-17T05:55:02.442Z,7.50
2023-09-17T06:00:08.945Z,6.00
2023-09-17T06:05:12.352Z,5.70
2023-09-17T06:10:16.211Z,5.90
2023-09-17T06:15:19.576Z,5.90
2023-09-17T06:20:23.194Z,6.30
2023-09-17T06:25:26.545Z,5.90
2023-09-17T06:30:29.909Z,5.60
2023-09-17T06:35:33.328Z,6.10
2023-09-17T06:40:36.604Z,5.90
2023-09-17T06:45:40.458Z,5.50
2023-09-17T06:50:43.978Z,5.60
2023-09-17T06:55:47.407Z,6.60
2023-09-17T07:00:50.713Z,5.80
2023-09-17T07:05:54.309Z,6.00
2023-09-17T07:10:58.019Z,5.50
2023-09-17T07:16:02.373Z,7.10
2023-09-17T07:21:06.501Z,5.80
2023-09-17T07:26:10.554Z,5.10
2023-09-17T07:31:16.562Z,6.00
2023-09-17T07:36:20.045Z,5.60
2023-09-17T07:41:24.570Z,6.20
2023-09-17T07:46:28.579Z,5.00
2023-09-17T07:51:32.196Z,5.30
2023-09-17T07:56:36.143Z,5.40
2023-09-17T08:01:39.678Z,5.40
2023-09-17T08:06:43.510Z,5.90
2023-09-17T08:11:47.329Z,5.40
2023-09-17T08:16:51.559Z,8.10
2023-09-17T08:21:55.027Z,6.90
2023-09-17T08:26:58.653Z,5.20
2023-09-17T08:32:03.070Z,6.10
2023-09-17T08:37:08.097Z,5.70
2023-09-17T08:42:12.159Z,8.10
2023-09-17T08:47:16.095Z,5.60
2023-09-17T08:52:20.725Z,6.10
2023-09-17T08:57:25.509Z,5.20
2023-09-17T09:02:33.880Z,6.30
2023-09-17T09:07:38.436Z,5.60
2023-09-17T09:12:43.606Z,8.50
2023-09-17T09:17:47.037Z,5.50
2023-09-17T09:22:50.357Z,5.50
2023-09-17T09:27:53.735Z,5.60
2023-09-17T09:32:58.088Z,5.00
2023-09-17T09:38:03.317Z,9.70
2023-09-17T09:43:06.634Z,4.70
2023-09-17T09:48:15.310Z,6.20
2023-09-17T09:53:18.355Z,4.90
2023-09-17T09:58:22.200Z,5.30
2023-09-17T10:03:25.902Z,5.50
2023-09-17T10:08:29.234Z,5.10
2023-09-17T10:13:36.199Z,8.20
2023-09-17T10:18:43.701Z,7.80
2023-09-17T10:23:47.269Z,6.70
2023-09-17T10:28:52.770Z,8.40
2023-09-17T10:34:00.329Z,6.30
2023-09-17T10:39:04.467Z,6.90
2023-09-17T10:44:09.336Z,8.80
2023-09-17T10:49:13.744Z,8.00
2023-09-17T10:54:17.262Z,6.00
2023-09-17T10:59:21.828Z,7.10
2023-09-17T11:04:27.208Z,6.90
2023-09-17T11:09:30.569Z,6.80
2023-09-17T11:14:33.832Z,7.70
2023-09-17T11:19:37.123Z,6.60
2023-09-17T11:24:41.737Z,7.20
2023-09-17T11:29:46.977Z,6.60
2023-09-17T11:34:50.369Z,7.00
2023-09-17T11:39:54.325Z,5.70
2023-09-17T11:44:58.315Z,5.80
2023-09-17T11:50:01.994Z,6.40
2023-09-17T11:55:09.585Z,6.90
2023-09-17T12:00:28.068Z,5.20
2023-09-17T12:05:31.455Z,6.00
2023-09-17T12:10:53.684Z,4.60
2023-09-17T12:15:58.256Z,6.00
2023-09-17T12:21:08.692Z,6.10
2023-09-17T12:26:12.248Z,4.30
2023-09-17T12:31:15.891Z,4.60
2023-09-17T12:36:19.071Z,5.70
2023-09-17T12:41:31.958Z,4.30
2023-09-17T12:46:43.523Z,4.50
2023-09-17T12:51:46.828Z,5.30
2023-09-17T12:56:52.298Z,4.20
2023-09-17T13:01:57.423Z,4.80
2023-09-17T13:07:01.773Z,4.20
2023-09-17T13:12:06.142Z,4.80
2023-09-17T13:17:09.676Z,3.30
2023-09-17T13:22:15.083Z,3.60
2023-09-17T13:27:19.463Z,3.70
2023-09-17T13:32:23.354Z,4.70
2023-09-17T13:37:27.074Z,4.80
2023-09-17T13:42:31.609Z,3.80
2023-09-17T13:47:34.939Z,3.70
2023-09-17T13:52:38.339Z,4.90
2023-09-17T13:57:42.145Z,4.20
2023-09-17T14:02:45.984Z,3.70
2023-09-17T14:07:49.301Z,3.40
2023-09-17T14:12:53.003Z,3.70
2023-09-17T14:17:56.221Z,4.00
2023-09-17T14:22:59.470Z,4.00
2023-09-17T14:28:02.749Z,4.40
2023-09-17T14:33:06.603Z,5.60
2023-09-17T14:38:09.898Z,6.70
2023-09-17T14:43:13.693Z,4.40
2023-09-17T14:48:17.234Z,4.20
2023-09-17T14:53:20.662Z,7.80
2023-09-17T14:58:24.130Z,4.60
2023-09-17T15:03:30.410Z,4.40
2023-09-17T15:08:34.434Z,4.50
2023-09-17T15:13:37.663Z,4.10
2023-09-17T15:18:41.467Z,5.70
2023-09-17T15:23:44.881Z,7.80
2023-09-17T15:28:50.632Z,5.00
2023-09-17T15:33:55.051Z,6.40
2023-09-17T15:38:58.603Z,6.60
2023-09-17T15:44:02.165Z,4.90
2023-09-17T15:49:06.616Z,5.50
2023-09-17T15:54:10.597Z,5.40
2023-09-17T15:59:14.566Z,5.00
2023-09-17T16:04:18.220Z,4.90
2023-09-17T16:09:22.044Z,5.10
2023-09-17T16:14:25.809Z,7.30
2023-09-17T16:19:29.897Z,12.10
2023-09-17T16:24:33.313Z,10.50
2023-09-17T16:29:37.444Z,10.00
2023-09-17T16:34:40.973Z,11.50
2023-09-17T16:39:44.264Z,9.20
2023-09-17T16:44:47.787Z,9.30
2023-09-17T16:49:51.068Z,9.60
2023-09-17T16:54:54.819Z,9.40
2023-09-17T16:59:58.017Z,10.20
2023-09-17T17:05:01.963Z,10.40
2023-09-17T17:10:07.360Z,9.80
2023-09-17T17:15:11.139Z,6.80
2023-09-17T17:20:14.706Z,13.40
2023-09-17T17:25:19.198Z,14.30
2023-09-17T17:30:23.372Z,17.70
2023-09-17T17:35:27.366Z,31.10
2023-09-17T17:40:31.263Z,15.10
2023-09-17T17:45:39.007Z,12.40
2023-09-17T17:50:43.630Z,8.60
2023-09-17T17:55:50.131Z,9.10
2023-09-17T18:00:54.682Z,9.20
2023-09-17T18:06:00.251Z,23.90
2023-09-17T18:11:06.531Z,12.50
2023-09-17T18:16:10.770Z,15.60
2023-09-17T18:21:15.067Z,22.60
2023-09-17T18:26:22.007Z,26.70
2023-09-17T18:31:26.537Z,21.70
2023-09-17T18:36:30.602Z,21.00
2023-09-17T18:41:34.413Z,15.90
2023-09-17T18:46:38.087Z,19.00
2023-09-17T18:51:41.580Z,13.50
2023-09-17T18:56:45.557Z,16.10
2023-09-17T19:01:49.375Z,13.20
2023-09-17T19:06:53.820Z,11.40
2023-09-17T19:11:58.403Z,10.70
2023-09-17T19:17:06.396Z,11.00
2023-09-17T19:22:10.988Z,10.50
2023-09-17T19:27:16.257Z,10.50
2023-09-17T19:32:21.474Z,10.80
2023-09-17T19:37:26.060Z,11.90
2023-09-17T19:42:30.411Z,10.10
2023-09-17T19:47:37.478Z,9.90
2023-09-17T19:52:41.109Z,9.20
2023-09-17T19:57:44.413Z,7.80
2023-09-17T20:02:47.979Z,7.80
2023-09-17T20:07:51.581Z,7.80
2023-09-17T20:12:55.059Z,7.80
2023-09-17T20:17:59.525Z,7.90
2023-09-17T20:23:03.132Z,7.60
2023-09-17T20:28:10.728Z,9.50
2023-09-17T20:33:13.836Z,10.10
2023-09-17T20:38:17.205Z,11.80
2023-09-17T20:43:20.927Z,8.20
2023-09-17T20:48:26.034Z,9.80
2023-09-17T20:53:30.000Z,9.70
2023-09-17T20:58:34.794Z,10.10
2023-09-17T21:03:39.034Z,11.60
2023-09-17T21:08:43.156Z,7.70
2023-09-17T21:13:46.680Z,8.80
2023-09-17T21:18:51.021Z,12.20
2023-09-17T21:23:56.988Z,8.20
2023-09-17T21:29:00.962Z,8.00
2023-09-17T21:34:04.927Z,11.40
2023-09-17T21:39:08.742Z,10.40
2023-09-17T21:44:13.042Z,10.10
2023-09-17T21:49:17.827Z,9.10
2023-09-17T21:54:21.132Z,9.00
2023-09-17T21:59:24.562Z,8.60
2023-09-17T22:04:30.030Z,10.10
2023-09-17T22:09:34.240Z,13.10
2023-09-17T22:14:38.587Z,11.00
2023-09-17T22:19:42.629Z,12.50
2023-09-17T22:24:45.819Z,11.30
2023-09-17T22:29:50.352Z,10.00
2023-09-17T22:34:56.477Z,9.40
2023-09-17T22:40:02.195Z,10.90
2023-09-17T22:45:06.478Z,13.00
2023-09-17T22:50:10.295Z,13.40
2023-09-17T22:55:13.658Z,18.00
2023-09-17T23:00:17.608Z,15.90
2023-09-17T23:05:20.957Z,14.90
2023-09-17T23:10:25.280Z,14.20
2023-09-17T23:15:29.260Z,12.20
2023-09-17T23:20:33.312Z,12.60
2023-09-17T23:25:36.597Z,11.80
2023-09-17T23:30:43.834Z,13.60
2023-09-17T23:35:49.044Z,15.80
2023-09-17T23:40:52.311Z,18.60
2023-09-17T23:45:55.796Z,18.30
2023-09-17T23:50:59.189Z,20.50
2023-09-17T23:56:03.472Z,14.30
